Time;durP1;ratioP1;P1;durP2;ratioP2;P2;SDS_P1;SDS_P2;PMS_P1;PMS_P2;Temp;Humidity;BMP_temperature;BMP_pressure;BME280_temperature;BME280_humidity;BME280_pressure;Samples;Min_cycle;Max_cycle;Signal;HPM_P1;HPM_P2
2022/09/28 00:00:31;;;;;;;;;;;;;;;20.89;29.37;96749.47;5053531;28;1556;-82
2022/09/28 00:02:57;;;;;;;;;;;;;;;20.69;29.78;96741.44;5053148;28;1520;-81
2022/09/28 00:05:25;;;;;;;;;;;;;;;20.57;30.27;96744.38;5054241;28;1906;-81
2022/09/28 00:07:54;;;;;;;;;;;;;;;21.13;29.43;96735.47;5054860;28;845;-82
2022/09/28 00:10:23;;;;;;;;;;;;;;;21.37;28.74;96746.16;5054532;28;744;-82
2022/09/28 00:12:49;;;;;;;;;;;;;;;21.37;28.50;96743.34;5039540;28;1547;-81
2022/09/28 00:15:14;;;;;;;;;;;;;;;21.07;29.08;96737.34;5068674;28;692;-82
2022/09/28 00:17:40;;;;;;;;;;;;;;;20.97;29.51;96732.94;5035429;28;787;-81
2022/09/28 00:20:05;;;;;;;;;;;;;;;20.89;29.93;96720.41;5094234;28;905;-81
2022/09/28 00:22:30;;;;;;;;;;;;;;;20.98;29.61;96728.84;5087145;28;1536;-82
2022/09/28 00:24:56;;;;;;;;;;;;;;;21.23;29.53;96728.53;5078254;28;1988;-82
2022/09/28 00:27:21;;;;;;;;;;;;;;;21.38;29.08;96739.25;5078350;28;897;-82
2022/09/28 00:29:47;;;;;;;;;;;;;;;21.11;29.65;96732.31;5044520;28;1122;-82
2022/09/28 00:32:12;;;;;;;;;;;;;;;20.97;29.94;96732.94;5061381;28;1486;-82
2022/09/28 00:34:41;;;;;;;;;;;;;;;21.04;29.63;96732.66;5078048;28;804;-82
2022/09/28 00:37:09;;;;;;;;;;;;;;;20.98;29.59;96737.34;5077970;28;1139;-81
2022/09/28 00:39:37;;;;;;;;;;;;;;;21.07;29.56;96740.19;5077762;28;1169;-81
2022/09/28 00:42:02;;;;;;;;;;;;;;;21.31;29.28;96741.13;5077414;28;1516;-81
2022/09/28 00:44:35;;;;;;;;;;;;;;;21.14;29.29;96739.88;5044278;28;1906;-81
2022/09/28 00:47:19;;;;;;;;;;;;;;;21.16;29.23;96740.19;5061119;28;850;-82
2022/09/28 00:49:49;;;;;;;;;;;;;;;20.91;29.75;96740.50;5077469;28;897;-81
2022/09/28 00:52:16;;;;;;;;;;;;;;;20.79;29.67;96745.06;5021871;28;1521;-82
2022/09/28 00:54:42;;;;;;;;;;;;;;;20.72;30.07;96748.94;5055413;28;1074;-81
2022/09/28 00:57:07;;;;;;;;;;;;;;;20.67;30.04;96749.56;5055055;28;1253;-82
2022/09/28 00:59:32;;;;;;;;;;;;;;;20.65;29.76;96745.66;5072026;28;854;-82
2022/09/28 01:01:58;;;;;;;;;;;;;;;20.70;29.90;96754.31;5039527;28;1537;-81
2022/09/28 01:04:23;;;;;;;;;;;;;;;21.18;29.23;96763.13;5055265;28;1996;-81
2022/09/28 01:06:49;;;;;;;;;;;;;;;21.44;28.49;96772.06;5046837;28;1486;-81
2022/09/28 01:09:14;;;;;;;;;;;;;;;21.30;28.89;96761.44;5075174;28;1233;-81
2022/09/28 01:11:41;;;;;;;;;;;;;;;20.97;29.50;96764.06;5075462;28;1133;-81
2022/09/28 01:14:07;;;;;;;;;;;;;;;20.88;29.34;96758.38;5055642;28;1590;-81
2022/09/28 01:16:51;;;;;;;;;;;;;;;20.70;29.77;96759.94;5021980;28;1218;-82
2022/09/28 01:19:27;;;;;;;;;;;;;;;20.58;30.00;96754.44;5045234;28;1569;-81
2022/09/28 01:22:05;;;;;;;;;;;;;;;20.64;29.65;96756.19;5038143;28;1516;-81
2022/09/28 01:24:43;;;;;;;;;;;;;;;20.72;29.77;96762.31;5039228;28;1887;-81
2022/09/28 01:27:10;;;;;;;;;;;;;;;21.17;29.01;96764.38;5038990;28;1013;-82
2022/09/28 01:29:48;;;;;;;;;;;;;;;21.35;28.77;96762.81;5070074;28;1574;-81
2022/09/28 01:32:16;;;;;;;;;;;;;;;21.17;29.20;96753.06;5039313;28;787;-82
2022/09/28 01:35:00;;;;;;;;;;;;;;;21.03;29.36;96756.50;5036673;28;1252;-81
2022/09/28 01:37:46;;;;;;;;;;;;;;;20.87;29.55;96765.31;5038997;28;712;-80
2022/09/28 01:40:11;;;;;;;;;;;;;;;20.81;29.91;96768.75;5046241;28;1562;-82
2022/09/28 01:42:37;;;;;;;;;;;;;;;20.64;29.91;96761.03;5020807;28;1384;-81
2022/09/28 01:45:05;;;;;;;;;;;;;;;20.70;30.18;96754.31;5021504;28;1914;-82
2022/09/28 01:47:32;;;;;;;;;;;;;;;21.12;29.38;96747.25;5021610;28;1118;-81
2022/09/28 01:49:59;;;;;;;;;;;;;;;21.32;28.97;96758.91;5027945;28;1433;-82
2022/09/28 01:52:29;;;;;;;;;;;;;;;21.31;29.08;96758.13;5003732;28;1282;-81
2022/09/28 01:54:56;;;;;;;;;;;;;;;20.94;29.93;96751.66;5019887;28;949;-82
2022/09/28 01:57:36;;;;;;;;;;;;;;;20.75;29.98;96750.84;5003652;28;1145;-81
2022/09/28 02:00:06;;;;;;;;;;;;;;;20.76;29.85;96755.25;5019860;28;1161;-82
2022/09/28 02:03:02;;;;;;;;;;;;;;;20.85;29.67;96762.16;5019448;28;1290;-81
2022/09/28 02:05:36;;;;;;;;;;;;;;;20.84;30.02;96750.09;4996916;28;1910;-82
2022/09/28 02:08:06;;;;;;;;;;;;;;;21.07;29.56;96743.00;5001312;28;1487;-82
2022/09/28 02:10:36;;;;;;;;;;;;;;;21.43;29.19;96730.13;4984037;28;1334;-82
2022/09/28 02:13:07;;;;;;;;;;;;;;;21.11;29.57;96743.63;4999983;28;1040;-82
2022/09/28 02:15:34;;;;;;;;;;;;;;;21.16;29.34;96740.19;4984013;28;1283;-82
2022/09/28 02:17:59;;;;;;;;;;;;;;;20.92;29.94;96747.72;4983073;28;1472;-82
2022/09/28 02:20:25;;;;;;;;;;;;;;;20.86;29.74;96760.91;5016143;28;911;-81
2022/09/28 02:22:52;;;;;;;;;;;;;;;20.57;30.44;96738.72;4999867;28;1150;-81
2022/09/28 02:25:17;;;;;;;;;;;;;;;20.86;30.11;96753.22;5016040;28;1918;-81
2022/09/28 02:28:09;;;;;;;;;;;;;;;20.85;30.09;96753.69;5017219;28;1365;-80
2022/09/28 02:30:35;;;;;;;;;;;;;;;21.16;29.70;96751.50;4999564;28;1268;-81
2022/09/28 02:33:15;;;;;;;;;;;;;;;21.21;29.43;96742.38;5012554;28;1278;-82
2022/09/28 02:35:41;;;;;;;;;;;;;;;21.31;29.29;96746.00;4996400;28;1075;-81
2022/09/28 02:38:07;;;;;;;;;;;;;;;21.06;29.48;96755.59;4995731;28;1535;-81
2022/09/28 02:40:33;;;;;;;;;;;;;;;20.95;29.86;96752.44;4992857;28;1145;-82
2022/09/28 02:42:59;;;;;;;;;;;;;;;20.86;30.17;96750.38;4976844;28;1176;-82
2022/09/28 02:45:33;;;;;;;;;;;;;;;21.04;29.55;96746.78;4960273;28;1915;-81
2022/09/28 02:48:04;;;;;;;;;;;;;;;20.80;30.17;96753.06;4957114;29;1488;-81
2022/09/28 02:50:35;;;;;;;;;;;;;;;20.86;29.94;96752.44;4959924;28;1119;-81
2022/09/28 02:53:06;;;;;;;;;;;;;;;21.06;29.75;96744.28;4976437;28;1107;-82
2022/09/28 02:55:43;;;;;;;;;;;;;;;21.36;29.44;96764.41;4976501;28;1129;-82
2022/09/28 02:58:11;;;;;;;;;;;;;;;21.32;29.24;96765.34;4975980;28;1571;-82
2022/09/28 03:00:38;;;;;;;;;;;;;;;21.07;29.69;96751.50;4976558;28;921;-82
2022/09/28 03:03:13;;;;;;;;;;;;;;;21.04;29.66;96755.28;4978074;28;833;-81
2022/09/28 03:05:46;;;;;;;;;;;;;;;21.13;29.57;96752.44;4996162;28;1918;-82
2022/09/28 03:08:18;;;;;;;;;;;;;;;21.06;29.73;96755.59;4975929;28;1405;-81
2022/09/28 03:10:53;;;;;;;;;;;;;;;20.96;29.73;96777.41;5015476;28;886;-81
2022/09/28 03:13:18;;;;;;;;;;;;;;;21.01;29.69;96773.97;5031792;28;1121;-81
2022/09/28 03:15:43;;;;;;;;;;;;;;;21.16;29.73;96762.81;5015571;28;1127;-81
2022/09/28 03:18:10;;;;;;;;;;;;;;;21.44;29.22;96776.97;5025263;28;1620;-82
2022/09/28 03:20:36;;;;;;;;;;;;;;;21.27;29.47;96773.66;5018440;28;1352;-82
2022/09/28 03:23:01;;;;;;;;;;;;;;;20.96;29.86;96770.97;5018459;28;1233;-82
2022/09/28 03:25:27;;;;;;;;;;;;;;;21.04;29.87;96775.06;5034594;28;1984;-81
2022/09/28 03:27:53;;;;;;;;;;;;;;;20.65;30.45;96769.06;5026335;28;1483;-82
2022/09/28 03:30:18;;;;;;;;;;;;;;;21.06;29.92;96775.38;5018282;28;1326;-81
2022/09/28 03:32:45;;;;;;;;;;;;;;;20.83;30.02;96787.28;5018422;28;1182;-81
2022/09/28 03:35:11;;;;;;;;;;;;;;;20.97;30.27;96775.38;5034998;28;1164;-81
2022/09/28 03:37:36;;;;;;;;;;;;;;;21.16;29.54;96779.78;5014250;28;1458;-81
2022/09/28 03:40:03;;;;;;;;;;;;;;;21.36;29.20;96781.38;4998580;28;1241;-81
2022/09/28 03:42:28;;;;;;;;;;;;;;;21.21;29.46;96776.31;4998659;28;1300;-82
2022/09/28 03:44:54;;;;;;;;;;;;;;;21.01;29.76;96773.19;4998488;28;1970;-81
2022/09/28 03:47:20;;;;;;;;;;;;;;;21.12;29.57;96779.16;5001367;28;1531;-82
2022/09/28 03:49:45;;;;;;;;;;;;;;;21.05;29.43;96779.47;5030374;28;885;-81
2022/09/28 03:52:11;;;;;;;;;;;;;;;21.03;29.58;96788.41;5034698;28;839;-81
2022/09/28 03:54:37;;;;;;;;;;;;;;;21.26;29.72;96784.19;5018323;28;1127;-81
2022/09/28 03:57:03;;;;;;;;;;;;;;;21.30;29.49;96790.50;5019269;28;2087;-81
2022/09/28 03:59:29;;;;;;;;;;;;;;;21.39;29.23;96786.06;5048506;28;1648;-81
2022/09/28 04:01:55;;;;;;;;;;;;;;;21.31;29.39;96786.41;5058467;28;1310;-82
2022/09/28 04:04:20;;;;;;;;;;;;;;;20.98;29.63;96791.84;5058537;28;1983;-81
2022/09/28 04:06:45;;;;;;;;;;;;;;;21.00;29.74;96788.56;5058590;28;809;-81
2022/09/28 04:09:11;;;;;;;;;;;;;;;21.07;29.66;96785.44;5078287;28;1158;-82
2022/09/28 04:11:37;;;;;;;;;;;;;;;21.00;29.91;96782.94;5078324;28;1286;-82
2022/09/28 04:14:02;;;;;;;;;;;;;;;20.94;29.81;96781.97;5044852;28;1218;-81
2022/09/28 04:16:29;;;;;;;;;;;;;;;20.85;30.03;96781.97;5061491;28;1146;-81
2022/09/28 04:19:06;;;;;;;;;;;;;;;20.63;30.57;96782.88;5077772;28;1185;-81
2022/09/28 04:21:50;;;;;;;;;;;;;;;20.94;30.00;96784.81;5081286;28;1329;-81
2022/09/28 04:24:16;;;;;;;;;;;;;;;21.29;29.53;96783.22;5077655;28;1984;-82
2022/09/28 04:26:42;;;;;;;;;;;;;;;21.43;29.35;96786.72;5077710;28;881;-82
2022/09/28 04:29:15;;;;;;;;;;;;;;;21.21;29.33;96787.63;5060785;28;1286;-81
2022/09/28 04:31:45;;;;;;;;;;;;;;;20.98;29.73;96786.19;5059337;28;1343;-82
2022/09/28 04:34:13;;;;;;;;;;;;;;;20.86;30.00;96794.84;5034821;28;1317;-83
2022/09/28 04:36:39;;;;;;;;;;;;;;;20.77;30.32;96807.69;5034076;28;992;-83
2022/09/28 04:39:05;;;;;;;;;;;;;;;20.81;30.12;96794.19;5019093;28;1139;-83
2022/09/28 04:41:32;;;;;;;;;;;;;;;20.69;30.28;96800.00;5020722;28;1433;-83
2022/09/28 04:43:57;;;;;;;;;;;;;;;21.17;29.91;96792.66;5020988;28;1059;-81
2022/09/28 04:46:24;;;;;;;;;;;;;;;21.42;29.17;96793.63;5021056;28;1910;-81
2022/09/28 04:49:10;;;;;;;;;;;;;;;21.08;29.67;96795.47;5057007;28;1043;-81
2022/09/28 04:51:56;;;;;;;;;;;;;;;20.89;30.38;96806.00;5056594;28;1058;-81
2022/09/28 04:54:21;;;;;;;;;;;;;;;20.93;30.15;96805.84;5057246;28;1201;-82
2022/09/28 04:56:47;;;;;;;;;;;;;;;21.00;29.96;96816.84;5057014;28;1384;-83
2022/09/28 04:59:13;;;;;;;;;;;;;;;20.73;30.21;96812.72;5057611;28;1205;-82
2022/09/28 05:01:40;;;;;;;;;;;;;;;20.73;30.34;96821.22;5057543;28;1226;-83
2022/09/28 05:04:24;;;;;;;;;;;;;;;20.72;30.29;96825.28;5056972;28;1894;-82
2022/09/28 05:07:08;;;;;;;;;;;;;;;21.07;29.99;96820.16;5056551;28;926;-82
2022/09/28 05:09:34;;;;;;;;;;;;;;;21.44;29.48;96816.56;5039825;28;1143;-82
2022/09/28 05:12:00;;;;;;;;;;;;;;;21.17;29.99;96831.47;5056728;28;850;-83
2022/09/28 05:14:25;;;;;;;;;;;;;;;21.25;29.62;96833.53;5056990;28;934;-83
2022/09/28 05:16:51;;;;;;;;;;;;;;;21.01;30.31;96832.56;5057049;28;1075;-83
2022/09/28 05:19:25;;;;;;;;;;;;;;;21.05;30.16;96841.69;5057096;28;849;-82
2022/09/28 05:21:53;;;;;;;;;;;;;;;20.98;30.19;96836.31;5040041;28;1338;-82
2022/09/28 05:24:18;;;;;;;;;;;;;;;20.84;30.23;96839.78;5040065;28;1898;-83
2022/09/28 05:26:51;;;;;;;;;;;;;;;20.78;30.61;96839.59;5025136;28;1051;-83
2022/09/28 05:29:17;;;;;;;;;;;;;;;20.71;30.37;96851.97;5020220;28;1307;-82
2022/09/28 05:32:03;;;;;;;;;;;;;;;20.69;30.69;96843.19;5030563;28;1055;-83
2022/09/28 05:34:43;;;;;;;;;;;;;;;21.32;29.83;96853.06;4985868;28;1124;-82
2022/09/28 05:37:15;;;;;;;;;;;;;;;21.55;29.46;96850.84;5000102;28;1155;-83
2022/09/28 05:39:40;;;;;;;;;;;;;;;21.57;29.50;96849.13;5017243;28;1294;-83
2022/09/28 05:42:06;;;;;;;;;;;;;;;21.23;29.84;96855.06;5017037;28;1225;-83
2022/09/28 05:44:33;;;;;;;;;;;;;;;21.11;30.07;96859.59;5016659;28;1906;-82
2022/09/28 05:46:59;;;;;;;;;;;;;;;21.12;30.05;96864.00;5016770;28;1181;-83
2022/09/28 05:49:27;;;;;;;;;;;;;;;20.78;30.74;96870.69;5016521;28;1208;-83
2022/09/28 05:51:53;;;;;;;;;;;;;;;20.85;30.56;96878.88;5016714;28;1334;-83
2022/09/28 05:54:21;;;;;;;;;;;;;;;20.87;30.45;96864.25;5016716;28;1211;-83
2022/09/28 05:56:46;;;;;;;;;;;;;;;21.00;30.51;96870.59;5036184;28;1270;-83
2022/09/28 05:59:12;;;;;;;;;;;;;;;20.98;30.40;96878.75;5019883;28;1125;-83
2022/09/28 06:01:38;;;;;;;;;;;;;;;20.74;31.06;96873.66;5019942;28;1226;-83
2022/09/28 06:04:07;;;;;;;;;;;;;;;20.90;30.47;96869.78;5036116;28;1107;-83
2022/09/28 06:06:34;;;;;;;;;;;;;;;20.85;30.53;96869.59;4996607;28;1918;-83
2022/09/28 06:08:59;;;;;;;;;;;;;;;20.67;30.81;96871.09;5003452;28;1128;-83
2022/09/28 06:11:45;;;;;;;;;;;;;;;20.81;30.51;96879.00;5042007;28;972;-83
2022/09/28 06:14:43;;;;;;;;;;;;;;;21.03;30.52;96876.06;5023979;28;1040;-83
2022/09/28 06:17:10;;;;;;;;;;;;;;;21.48;29.90;96882.28;5019629;28;1183;-83
2022/09/28 06:19:35;;;;;;;;;;;;;;;21.21;29.94;96878.16;5019255;28;1238;-83
2022/09/28 06:22:27;;;;;;;;;;;;;;;21.18;30.02;96884.75;5033040;28;913;-83
2022/09/28 06:25:05;;;;;;;;;;;;;;;20.96;30.49;96895.41;5004298;28;1914;-83
2022/09/28 06:27:32;;;;;;;;;;;;;;;20.96;30.51;96895.41;5019616;28;1087;-83
2022/09/28 06:29:59;;;;;;;;;;;;;;;21.15;30.10;96902.69;5019409;28;1262;-83
2022/09/28 06:32:28;;;;;;;;;;;;;;;21.10;30.22;96906.13;5019670;28;1320;-83
2022/09/28 06:34:54;;;;;;;;;;;;;;;20.78;30.72;96908.22;5002943;28;1323;-83
2022/09/28 06:37:19;;;;;;;;;;;;;;;20.89;30.55;96912.66;5019280;28;1182;-83
2022/09/28 06:39:45;;;;;;;;;;;;;;;20.85;30.58;96895.06;5002637;28;1288;-83
2022/09/28 06:42:10;;;;;;;;;;;;;;;20.69;30.86;96898.94;5019283;28;1533;-83
2022/09/28 06:44:57;;;;;;;;;;;;;;;20.90;30.53;96902.91;5035071;28;1902;-83
2022/09/28 06:47:42;;;;;;;;;;;;;;;20.68;30.86;96903.00;5035250;28;1024;-83
2022/09/28 06:50:27;;;;;;;;;;;;;;;20.65;30.99;96907.53;5027255;28;863;-83
2022/09/28 06:53:12;;;;;;;;;;;;;;;21.07;31.25;96896.50;5037281;28;656;-83
2022/09/28 06:55:56;;;;;;;;;;;;;;;21.95;29.43;96895.16;5352062;22;3582;-80
2022/09/28 06:58:22;;;;;;;;;;;;;;;22.01;30.53;96896.09;5069343;28;1097;-81
2022/09/28 07:00:51;;;;;;;;;;;;;;;21.65;31.13;96899.75;5069001;28;915;-82
2022/09/28 07:03:17;;;;;;;;;;;;;;;21.38;31.77;96895.66;5052341;28;1263;-81
2022/09/28 07:06:17;;;;;;;;;;;;;;;21.01;32.55;96911.75;5026819;28;1975;-81
2022/09/28 07:09:11;;;;;;;;;;;;;;;20.99;32.31;96908.59;4975621;28;1105;-81
2022/09/28 07:11:57;;;;;;;;;;;;;;;21.14;31.84;96906.75;4976034;28;1140;-81
2022/09/28 07:14:30;;;;;;;;;;;;;;;20.94;31.80;96909.22;4959641;28;1215;-80
2022/09/28 07:16:55;;;;;;;;;;;;;;;21.01;31.61;96897.59;4959770;28;1412;-81
2022/09/28 07:19:21;;;;;;;;;;;;;;;20.91;32.01;96899.63;4976177;28;1302;-82
2022/09/28 07:21:47;;;;;;;;;;;;;;;20.95;31.59;96905.13;4976004;28;1095;-81
2022/09/28 07:24:13;;;;;;;;;;;;;;;20.80;31.70;96905.72;4976288;28;807;-81
2022/09/28 07:27:11;;;;;;;;;;;;;;;20.92;31.43;96906.06;4937365;29;1077;-81
2022/09/28 07:29:57;;;;;;;;;;;;;;;20.79;31.22;96904.16;4937242;29;1082;-82
2022/09/28 07:32:41;;;;;;;;;;;;;;;20.96;30.97;96904.66;4956750;29;822;-83
2022/09/28 07:35:35;;;;;;;;;;;;;;;21.38;31.67;96906.97;5187959;22;4093;-76
2022/09/28 07:38:02;;;;;;;;;;;;;;;21.70;31.82;96899.13;5096456;28;730;-76
2022/09/28 07:43:31;;;;;;;;;;;;;;;21.12;32.81;96906.44;5049693;28;1301;-76
2022/09/28 07:45:57;;;;;;;;;;;;;;;20.86;33.28;96913.59;5054277;28;1977;-76
2022/09/28 07:48:23;;;;;;;;;;;;;;;20.74;33.24;96913.25;5037679;28;1069;-77
2022/09/28 07:50:55;;;;;;;;;;;;;;;21.06;32.07;96916.78;5054296;28;1001;-77
2022/09/28 07:53:39;;;;;;;;;;;;;;;21.02;31.87;96910.50;5034140;28;916;-76
2022/09/28 07:56:28;;;;;;;;;;;;;;;20.99;31.77;96900.13;4969096;28;937;-77
2022/09/28 07:59:00;;;;;;;;;;;;;;;21.46;30.54;96893.31;5430313;22;3791;-77
2022/09/28 08:01:37;;;;;;;;;;;;;;;21.83;31.49;96897.72;5034605;28;1673;-77
2022/09/28 08:04:03;;;;;;;;;;;;;;;21.97;32.27;96896.28;5200810;22;3716;-77
2022/09/28 08:06:33;;;;;;;;;;;;;;;21.81;32.95;96891.75;5055324;28;1925;-78
2022/09/28 08:09:00;;;;;;;;;;;;;;;21.64;33.17;96889.69;5038705;28;1110;-76
2022/09/28 08:11:51;;;;;;;;;;;;;;;21.19;33.40;96886.34;5055359;28;828;-76
2022/09/28 08:14:55;;;;;;;;;;;;;;;21.29;32.85;96896.38;5054489;28;820;-76
2022/09/28 08:17:34;;;;;;;;;;;;;;;21.02;32.89;96883.00;5053948;28;944;-76
2022/09/28 08:22:48;;;;;;;;;;;;;;;20.99;32.32;96895.25;5054031;28;1001;-76
2022/09/28 08:25:13;;;;;;;;;;;;;;;21.75;32.00;96881.50;5511789;22;3975;-81
2022/09/28 08:27:39;;;;;;;;;;;;;;;21.96;32.97;96885.41;5234279;22;3484;-76
2022/09/28 08:30:37;;;;;;;;;;;;;;;22.26;33.05;96890.09;5132841;22;3525;31
2022/09/28 08:33:21;;;;;;;;;;;;;;;22.72;32.58;96889.94;5008093;28;1354;-81
2022/09/28 08:36:05;;;;;;;;;;;;;;;22.12;33.73;96904.91;4995773;28;689;-81
2022/09/28 08:38:53;;;;;;;;;;;;;;;21.76;33.84;96900.88;5053856;28;999;-81
2022/09/28 08:41:44;;;;;;;;;;;;;;;21.59;33.47;96896.75;4994767;28;933;-81
2022/09/28 08:44:40;;;;;;;;;;;;;;;21.30;33.65;96903.69;4983351;28;1902;-81
2022/09/28 08:47:06;;;;;;;;;;;;;;;21.48;32.84;96902.09;4981808;28;986;-81
2022/09/28 08:50:00;;;;;;;;;;;;;;;21.26;32.98;96900.16;4969963;28;1132;-81
2022/09/28 08:52:35;;;;;;;;;;;;;;;21.30;32.49;96898.00;4963920;28;1204;-81
2022/09/28 08:55:35;;;;;;;;;;;;;;;21.40;31.91;96901.66;4940046;29;994;-81
2022/09/28 08:58:07;;;;;;;;;;;;;;;21.23;31.85;96897.50;4924526;29;1277;-76
2022/09/28 09:00:47;;;;;;;;;;;;;;;21.69;32.22;96901.16;4937447;29;1963;-77
2022/09/28 09:03:17;;;;;;;;;;;;;;;22.03;32.14;96885.09;4923355;29;1337;-80
2022/09/28 09:06:09;;;;;;;;;;;;;;;22.24;31.94;96892.63;4939044;29;2012;-80
2022/09/28 09:08:59;;;;;;;;;;;;;;;22.22;32.39;96902.84;4923095;29;1259;-79
2022/09/28 09:11:28;;;;;;;;;;;;;;;21.94;32.15;96842.63;4939041;29;1125;-79
2022/09/28 09:13:57;;;;;;;;;;;;;;;21.74;33.30;96900.53;4939970;29;1247;-79
2022/09/28 09:16:23;;;;;;;;;;;;;;;21.43;33.10;96906.34;4899514;29;1341;-80
2022/09/28 09:19:16;;;;;;;;;;;;;;;21.23;33.02;96903.94;4933804;29;1030;-79
2022/09/28 09:22:04;;;;;;;;;;;;;;;21.40;32.46;96898.00;4923094;29;1518;-79
2022/09/28 09:24:32;;;;;;;;;;;;;;;21.34;32.04;96892.19;4924419;29;1914;-79
2022/09/28 09:27:16;;;;;;;;;;;;;;;21.25;31.86;96907.09;4927365;29;1288;-79
2022/09/28 09:30:05;;;;;;;;;;;;;;;21.08;31.85;96909.41;4927190;29;1114;-79
2022/09/28 09:32:35;;;;;;;;;;;;;;;21.22;31.63;96902.38;4907953;29;1315;-80
2022/09/28 09:35:16;;;;;;;;;;;;;;;21.16;31.29;96903.47;4901482;29;1295;-80
2022/09/28 09:38:29;;;;;;;;;;;;;;;21.19;31.21;96913.81;4901230;29;899;-80
2022/09/28 09:41:23;;;;;;;;;;;;;;;21.20;30.87;96904.88;4900894;29;1036;-80
2022/09/28 09:44:18;;;;;;;;;;;;;;;20.95;31.10;96922.09;4901096;29;1047;-80
2022/09/28 09:46:53;;;;;;;;;;;;;;;21.24;30.41;96916.84;4900788;29;1910;-80
2022/09/28 09:49:37;;;;;;;;;;;;;;;20.98;30.74;96921.16;4900885;29;1171;-80
2022/09/28 09:52:10;;;;;;;;;;;;;;;21.05;30.71;96915.22;4885740;29;969;-80
2022/09/28 09:54:36;;;;;;;;;;;;;;;21.08;30.72;96917.88;4884572;29;1118;-80
2022/09/28 09:57:09;;;;;;;;;;;;;;;20.92;30.88;96915.31;4834149;29;1379;-80
2022/09/28 09:59:44;;;;;;;;;;;;;;;20.81;30.68;96918.59;4845237;29;1209;-80
2022/09/28 10:02:28;;;;;;;;;;;;;;;20.82;30.75;96919.38;4845507;29;951;-80
2022/09/28 10:05:18;;;;;;;;;;;;;;;21.05;30.07;96918.06;4851087;29;1984;-81
2022/09/28 10:07:50;;;;;;;;;;;;;;;21.08;30.03;96926.38;4900451;29;1409;-80
2022/09/28 10:10:17;;;;;;;;;;;;;;;21.01;30.11;96932.31;4931273;29;1063;-80
2022/09/28 10:12:48;;;;;;;;;;;;;;;20.96;30.47;96923.66;4938634;29;1129;-80
2022/09/28 10:15:15;;;;;;;;;;;;;;;20.76;30.60;96921.25;4961215;28;1297;-80
2022/09/28 10:17:51;;;;;;;;;;;;;;;20.93;30.11;96919.72;4983420;28;1279;-80
2022/09/28 10:20:38;;;;;;;;;;;;;;;21.14;29.62;96929.41;5029822;28;941;-80
2022/09/28 10:23:19;;;;;;;;;;;;;;;21.00;29.86;96918.66;5014830;28;1166;-80
2022/09/28 10:25:44;;;;;;;;;;;;;;;20.80;30.45;96925.50;5016199;28;1975;-79
2022/09/28 10:28:10;;;;;;;;;;;;;;;20.95;30.20;96922.88;5015762;28;1232;-80
2022/09/28 10:30:40;;;;;;;;;;;;;;;20.84;29.96;96916.09;5015800;28;1482;-80
2022/09/28 10:33:09;;;;;;;;;;;;;;;20.77;30.14;96917.16;5015068;28;1271;-80
2022/09/28 10:35:41;;;;;;;;;;;;;;;20.84;31.17;96911.22;5002220;28;1245;-80
2022/09/28 10:38:17;;;;;;;;;;;;;;;21.19;31.20;96911.00;5007559;28;1597;-80
2022/09/28 10:40:46;;;;;;;;;;;;;;;21.42;31.08;96904.00;5004932;28;1062;-80
2022/09/28 10:43:25;;;;;;;;;;;;;;;21.45;31.11;96903.03;4997018;28;1136;-80
2022/09/28 10:46:01;;;;;;;;;;;;;;;21.08;31.40;96905.78;4997331;28;1979;-80
2022/09/28 10:48:27;;;;;;;;;;;;;;;21.15;31.27;96911.16;4997127;28;1130;-80
2022/09/28 10:51:01;;;;;;;;;;;;;;;21.06;31.40;96902.66;4996807;28;790;-80
2022/09/28 10:53:27;;;;;;;;;;;;;;;21.12;31.17;96889.47;5018925;28;1146;-80
2022/09/28 10:56:03;;;;;;;;;;;;;;;21.25;30.60;96906.31;5019649;28;965;-77
2022/09/28 10:58:31;;;;;;;;;;;;;;;21.07;30.98;96899.34;5018319;28;1230;-82
2022/09/28 11:00:58;;;;;;;;;;;;;;;21.11;30.71;96904.84;5018804;28;833;-82
2022/09/28 11:03:24;;;;;;;;;;;;;;;21.10;30.69;96903.28;5002029;28;1165;-82
2022/09/28 11:06:03;;;;;;;;;;;;;;;21.36;30.31;96901.00;5017814;28;1980;-80
2022/09/28 11:08:31;;;;;;;;;;;;;;;21.32;30.82;96908.84;5001707;28;1086;-80
2022/09/28 11:11:02;;;;;;;;;;;;;;;21.23;30.90;96892.63;5017987;28;1369;-79
2022/09/28 11:13:28;;;;;;;;;;;;;;;21.14;30.99;96889.78;5017885;28;1049;-78
2022/09/28 11:16:01;;;;;;;;;;;;;;;21.41;30.10;96885.44;5018144;28;1974;-85
2022/09/28 11:18:33;;;;;;;;;;;;;;;21.08;30.54;96903.75;5003317;28;1285;-83
2022/09/28 11:21:20;;;;;;;;;;;;;;;20.99;30.60;96894.47;4999195;28;1159;-84
2022/09/28 11:24:05;;;;;;;;;;;;;;;20.90;31.10;96885.97;4993205;28;1124;-83
2022/09/28 11:26:36;;;;;;;;;;;;;;;20.87;30.64;96898.97;4979481;28;1911;-83
2022/09/28 11:29:03;;;;;;;;;;;;;;;20.81;30.92;96898.81;4979289;28;1444;-83
2022/09/28 11:31:44;;;;;;;;;;;;;;;20.87;30.62;96898.19;4965414;28;1628;-83
2022/09/28 11:34:32;;;;;;;;;;;;;;;20.84;30.49;96894.28;4979483;28;1209;-83
2022/09/28 11:37:05;;;;;;;;;;;;;;;20.76;30.83;96893.75;4979283;28;1238;-83
2022/09/28 11:39:36;;;;;;;;;;;;;;;20.89;30.55;96895.69;4979447;28;1420;-84
2022/09/28 11:42:31;;;;;;;;;;;;;;;21.00;30.04;96894.00;4979570;28;1253;-83
2022/09/28 11:45:01;;;;;;;;;;;;;;;20.84;30.49;96890.66;4976141;28;1914;-83
2022/09/28 11:47:26;;;;;;;;;;;;;;;20.81;30.19;96900.84;4956896;28;1174;-83
2022/09/28 11:49:56;;;;;;;;;;;;;;;21.11;30.27;96890.72;4956564;29;1136;-83
2022/09/28 11:52:26;;;;;;;;;;;;;;;21.25;30.23;96875.19;4960031;28;1176;-83
2022/09/28 11:54:53;;;;;;;;;;;;;;;21.26;30.20;96883.19;4976369;28;1191;-83
2022/09/28 11:57:26;;;;;;;;;;;;;;;21.03;30.76;96876.06;4960019;28;1310;-83
2022/09/28 12:00:12;;;;;;;;;;;;;;;21.02;30.43;96882.22;4959637;28;1230;-83
2022/09/28 12:02:48;;;;;;;;;;;;;;;21.14;30.31;96874.84;4959494;28;1367;-83
2022/09/28 12:05:18;;;;;;;;;;;;;;;20.85;30.79;96886.56;4959420;28;1977;-83
2022/09/28 12:07:45;;;;;;;;;;;;;;;20.89;30.36;96890.03;4975707;28;982;-83
2022/09/28 12:10:33;;;;;;;;;;;;;;;20.90;30.27;96874.66;4962267;28;848;-83
2022/09/28 12:13:12;;;;;;;;;;;;;;;21.03;30.19;96883.78;4959521;28;1254;-83
2022/09/28 12:15:55;;;;;;;;;;;;;;;20.81;30.26;96884.66;4975475;28;840;-83
2022/09/28 12:18:22;;;;;;;;;;;;;;;20.62;30.65;96877.38;4986212;28;798;-83
2022/09/28 12:20:49;;;;;;;;;;;;;;;20.50;30.71;96873.41;4966555;28;1120;-83
2022/09/28 12:23:14;;;;;;;;;;;;;;;20.65;30.48;96876.44;4998331;28;1314;-83
2022/09/28 12:25:41;;;;;;;;;;;;;;;20.84;30.24;96879.34;4998447;28;1906;-83
2022/09/28 12:28:23;;;;;;;;;;;;;;;20.85;29.99;96872.44;4982191;28;1273;-83
2022/09/28 12:30:48;;;;;;;;;;;;;;;20.94;30.14;96872.47;5004302;28;1424;-83
2022/09/28 12:33:14;;;;;;;;;;;;;;;21.02;29.96;96870.91;5019856;28;1229;-83
2022/09/28 12:35:48;;;;;;;;;;;;;;;21.41;29.40;96874.91;5009622;28;1292;-83
2022/09/28 12:38:32;;;;;;;;;;;;;;;21.21;29.48;96877.38;5001884;28;1170;-83
2022/09/28 12:41:18;;;;;;;;;;;;;;;20.92;30.06;96889.88;5018420;28;841;-83
2022/09/28 12:43:44;;;;;;;;;;;;;;;20.90;30.15;96886.75;4998791;28;876;-83
2022/09/28 12:46:28;;;;;;;;;;;;;;;20.85;30.15;96878.09;4998494;28;1987;-83
2022/09/28 12:49:12;;;;;;;;;;;;;;;21.12;29.64;96863.22;4998221;28;1083;-83
2022/09/28 12:51:47;;;;;;;;;;;;;;;20.72;30.12;96876.16;4982320;28;1211;-83
2022/09/28 12:54:17;;;;;;;;;;;;;;;20.90;29.74;96871.81;4981965;28;984;-83
2022/09/28 12:56:43;;;;;;;;;;;;;;;20.87;30.16;96869.91;4982143;28;752;-83
2022/09/28 12:59:08;;;;;;;;;;;;;;;20.94;30.05;96869.63;4982113;28;826;-83
2022/09/28 13:01:43;;;;;;;;;;;;;;;20.86;29.84;96874.00;4998822;28;967;-83
2022/09/28 13:04:11;;;;;;;;;;;;;;;20.86;29.89;96859.88;4966000;28;1081;-83
2022/09/28 13:06:41;;;;;;;;;;;;;;;21.18;29.51;96856.47;4998025;28;1918;-84
2022/09/28 13:09:10;;;;;;;;;;;;;;;21.36;29.15;96857.78;4959107;29;849;-83
2022/09/28 13:11:53;;;;;;;;;;;;;;;21.26;29.51;96863.41;4978682;28;872;-83
2022/09/28 13:14:21;;;;;;;;;;;;;;;21.10;29.60;96858.03;4978244;28;965;-83
2022/09/28 13:17:10;;;;;;;;;;;;;;;21.18;29.54;96867.78;4978528;28;817;-84
2022/09/28 13:20:05;;;;;;;;;;;;;;;21.10;29.71;96863.69;4920861;29;1041;-83
2022/09/28 13:22:35;;;;;;;;;;;;;;;20.96;29.84;96867.13;4902470;29;1078;-84
2022/09/28 13:25:05;;;;;;;;;;;;;;;20.90;29.96;96871.81;4902083;29;1977;-83
2022/09/28 13:27:32;;;;;;;;;;;;;;;21.00;29.77;96873.41;4901811;29;1521;-83
2022/09/28 13:29:58;;;;;;;;;;;;;;;20.67;30.56;96879.59;4901498;29;973;-83
2022/09/28 13:32:25;;;;;;;;;;;;;;;20.90;29.90;96880.31;4902058;29;1337;-83
2022/09/28 13:34:51;;;;;;;;;;;;;;;21.08;29.76;96871.84;4886639;29;1199;-84